Time;durP1;ratioP1;P1;durP2;ratioP2;P2;SDS_P1;SDS_P2;PMS_P1;PMS_P2;Temp;Humidity;BMP_temperature;BMP_pressure;BME280_temperature;BME280_humidity;BME280_pressure;Samples;Min_cycle;Max_cycle;Signal;HPM_P1;HPM_P2
2023/07/08 00:00:11;;;;;;;16.45;9.07;;;;;;;20.31;58.38;101542.06;4990803;28;20030;-69
2023/07/08 00:02:37;;;;;;;17.40;9.07;;;;;;;20.26;58.37;101527.09;4984052;28;20043;-68
2023/07/08 00:05:02;;;;;;;17.63;9.45;;;;;;;20.20;58.28;101527.72;4984317;28;20029;-69
2023/07/08 00:07:27;;;;;;;17.40;9.98;;;;;;;20.17;58.37;101534.03;4983297;28;20060;-70
2023/07/08 00:09:53;;;;;;;19.05;9.70;;;;;;;20.16;58.56;101524.81;4979965;28;20038;-69
2023/07/08 00:12:18;;;;;;;17.60;9.48;;;;;;;20.10;58.83;101520.59;4978127;28;20072;-68
2023/07/08 00:14:43;;;;;;;18.58;10.00;;;;;;;20.01;59.12;101520.75;4973536;28;20031;-68
2023/07/08 00:17:15;;;;;;;16.98;9.73;;;;;;;20.02;59.06;101519.56;4992189;28;20045;-68
2023/07/08 00:19:40;;;;;;;17.02;9.93;;;;;;;20.00;59.12;101512.66;4989186;28;20113;-68
2023/07/08 00:22:14;;;;;;;16.45;9.43;;;;;;;19.93;59.49;101516.09;4972753;28;20786;-68
2023/07/08 00:24:39;;;;;;;;;;;;;;;20.02;57.98;101516.78;4973104;28;20047;-68
2023/07/08 00:27:07;;;;;;;16.88;9.70;;;;;;;19.87;59.60;101509.91;4982910;28;19995;-68
2023/07/08 00:29:33;;;;;;;15.88;9.45;;;;;;;19.86;59.77;101508.25;4991857;28;20030;-69
2023/07/08 00:31:58;;;;;;;16.23;10.00;;;;;;;19.81;59.93;101508.47;4989814;28;20168;-69
2023/07/08 00:34:23;;;;;;;15.88;9.57;;;;;;;19.77;59.83;101502.72;4992167;28;20069;-69
2023/07/08 00:36:49;;;;;;;19.40;9.70;;;;;;;19.75;60.22;101502.25;4980227;28;20485;-69
2023/07/08 00:39:14;;;;;;;17.90;10.00;;;;;;;19.74;60.39;101500.63;4976174;28;20538;-68
2023/07/08 00:41:42;;;;;;;18.77;9.90;;;;;;;19.68;60.50;101504.06;4992144;28;20051;-69
2023/07/08 00:44:11;;;;;;;18.13;9.63;;;;;;;19.59;61.23;101492.94;4981057;28;20109;-69
2023/07/08 00:46:55;;;;;;;18.35;10.50;;;;;;;19.61;60.36;101499.03;4972622;28;20027;-69
2023/07/08 00:49:23;;;;;;;18.02;10.10;;;;;;;19.55;61.18;101494.81;4972845;28;20027;-69
2023/07/08 00:51:49;;;;;;;16.58;9.77;;;;;;;19.47;61.79;101503.00;4982558;28;20108;-68
2023/07/08 00:54:17;;;;;;;17.90;10.60;;;;;;;19.44;61.46;101500.06;4992060;28;20471;-69
2023/07/08 00:56:59;;;;;;;16.83;10.10;;;;;;;19.39;61.15;101495.53;4992231;28;20069;-69
2023/07/08 00:59:29;;;;;;;18.23;10.48;;;;;;;19.42;62.08;101497.63;5007115;28;20027;-69
2023/07/08 01:01:57;;;;;;;18.83;10.35;;;;;;;19.31;62.37;101500.09;4991961;28;20037;-69
2023/07/08 01:04:29;;;;;;;18.58;10.48;;;;;;;19.18;62.77;101490.84;4991495;28;20022;-69
2023/07/08 01:06:58;;;;;;;18.55;10.90;;;;;;;19.12;63.06;101492.25;4985316;28;20422;-69
2023/07/08 01:09:30;;;;;;;18.40;9.98;;;;;;;19.09;62.78;101498.53;4992182;28;20498;-69
2023/07/08 01:12:01;;;;;;;17.80;10.30;;;;;;;19.10;63.57;101502.97;4992055;28;20027;-69
2023/07/08 01:14:32;;;;;;;19.92;10.90;;;;;;;19.04;63.17;101495.16;4992791;28;20039;-68
2023/07/08 01:16:57;;;;;;;19.90;10.75;;;;;;;19.09;63.56;101498.53;4994171;28;20146;-68
2023/07/08 01:19:32;;;;;;;18.25;10.50;;;;;;;19.04;63.58;101500.75;4981877;28;20146;-68
2023/07/08 01:22:03;;;;;;;17.58;10.02;;;;;;;19.00;63.83;101500.63;4979795;28;20080;-67
2023/07/08 01:24:31;;;;;;;20.17;10.52;;;;;;;18.94;63.64;101491.63;4975769;28;20030;-69
2023/07/08 01:26:57;;;;;;;17.98;10.27;;;;;;;18.99;63.42;101485.81;4975789;28;20037;-68
2023/07/08 01:29:23;;;;;;;17.33;10.25;;;;;;;19.00;63.86;101497.81;4975659;28;20031;-68
2023/07/08 01:31:48;;;;;;;17.88;10.05;;;;;;;18.98;63.64;101491.78;4994074;28;20039;-68
2023/07/08 01:34:17;;;;;;;17.77;9.98;;;;;;;18.97;64.09;101495.75;4994987;28;20041;-68
2023/07/08 01:36:49;;;;;;;17.27;9.98;;;;;;;18.98;64.02;101497.38;4994878;28;20109;-67
2023/07/08 01:39:19;;;;;;;17.52;10.18;;;;;;;18.90;63.94;101478.63;4994892;28;20030;-67
2023/07/08 01:41:45;;;;;;;18.15;10.70;;;;;;;18.89;64.63;101491.84;4994832;28;20057;-67
2023/07/08 01:44:34;;;;;;;17.20;10.15;;;;;;;18.93;63.61;101491.97;4994678;28;20078;-68
2023/07/08 01:47:16;;;;;;;18.45;10.57;;;;;;;18.85;64.27;101480.50;4994772;28;20026;-68
2023/07/08 01:49:43;;;;;;;18.70;10.30;;;;;;;18.79;64.71;101481.91;4990749;28;20202;-68
2023/07/08 01:52:10;;;;;;;16.85;9.55;;;;;;;18.79;64.84;101481.06;4979291;28;20027;-67
2023/07/08 01:54:35;;;;;;;17.58;10.05;;;;;;;18.77;65.18;101481.44;4994418;28;20109;-67
2023/07/08 01:57:02;;;;;;;18.48;9.88;;;;;;;18.75;65.04;101480.13;4978841;28;20204;-68
2023/07/08 01:59:28;;;;;;;16.95;9.57;;;;;;;18.69;65.47;101476.75;4985952;28;20070;-69
2023/07/08 02:01:55;;;;;;;17.20;10.02;;;;;;;18.67;65.43;101465.84;4994293;28;20478;-68
2023/07/08 02:04:24;;;;;;;16.77;9.88;;;;;;;18.61;65.70;101460.84;4994267;28;20034;-68
2023/07/08 02:06:55;;;;;;;19.50;10.50;;;;;;;18.59;66.01;101452.75;4993273;28;20533;-68
2023/07/08 02:09:21;;;;;;;18.60;10.15;;;;;;;18.51;65.70;101448.06;4991555;28;20030;-67
2023/07/08 02:11:46;;;;;;;18.67;10.52;;;;;;;18.48;66.32;101460.81;4994128;28;20036;-68
2023/07/08 02:14:11;;;;;;;19.20;10.65;;;;;;;18.47;66.21;101459.16;4994387;28;20842;-68
2023/07/08 02:16:37;;;;;;;17.85;10.52;;;;;;;18.41;66.58;101446.53;4994006;28;20156;-68
2023/07/08 02:19:02;;;;;;;18.05;10.82;;;;;;;18.37;67.07;101454.78;4993075;28;20022;-67
2023/07/08 02:21:30;;;;;;;18.25;11.10;;;;;;;18.34;66.93;101443.47;4990012;28;20777;-68
2023/07/08 02:23:56;;;;;;;19.08;11.50;;;;;;;18.34;66.67;101449.06;4988346;28;20399;-68
2023/07/08 02:26:22;;;;;;;18.73;10.82;;;;;;;18.34;67.18;101446.25;4982872;28;20133;-68
2023/07/08 02:28:47;;;;;;;19.80;11.35;;;;;;;18.30;67.09;101436.94;4992682;28;20113;-68
2023/07/08 02:31:12;;;;;;;20.58;12.57;;;;;;;18.18;67.89;101438.53;4993655;28;20129;-69
2023/07/08 02:33:37;;;;;;;23.48;13.38;;;;;;;18.16;67.88;101431.63;4993818;28;20382;-69
2023/07/08 02:36:03;;;;;;;20.48;12.00;;;;;;;18.11;68.35;101431.81;4993645;28;20482;-68
2023/07/08 02:38:28;;;;;;;19.67;12.02;;;;;;;18.05;68.74;101440.44;4993355;28;20097;-68
2023/07/08 02:40:54;;;;;;;20.20;10.63;;;;;;;18.04;68.42;101441.59;5012774;28;20066;-69
2023/07/08 02:43:19;;;;;;;19.30;11.07;;;;;;;18.00;68.62;101435.03;5013178;28;20490;-69
2023/07/08 02:45:44;;;;;;;19.40;11.45;;;;;;;17.96;68.73;101436.03;4994354;28;20053;-69
2023/07/08 02:48:10;;;;;;;21.83;12.02;;;;;;;17.98;68.86;101443.00;4993424;28;20038;-70
2023/07/08 02:50:35;;;;;;;21.50;12.18;;;;;;;18.01;68.41;101441.47;4991447;28;20048;-68
2023/07/08 02:53:00;;;;;;;21.27;12.40;;;;;;;17.98;68.83;101431.78;4991025;28;20034;-69
2023/07/08 02:55:26;;;;;;;19.25;11.82;;;;;;;17.93;68.76;101430.00;4992381;28;20054;-68
2023/07/08 02:57:51;;;;;;;20.73;11.45;;;;;;;17.95;69.12;101431.63;4979684;28;20030;-68
2023/07/08 03:00:16;;;;;;;17.83;11.00;;;;;;;17.96;68.89;101427.66;4991422;28;20033;-68
2023/07/08 03:02:42;;;;;;;19.17;11.00;;;;;;;17.90;68.84;101436.25;4993455;28;20092;-69
2023/07/08 03:05:07;;;;;;;17.40;10.55;;;;;;;17.82;69.20;101423.16;4995252;28;20084;-68
2023/07/08 03:07:33;;;;;;;17.77;10.80;;;;;;;17.83;69.43;101433.19;4993103;28;20038;-68
2023/07/08 03:09:58;;;;;;;18.42;10.40;;;;;;;17.82;69.44;101433.53;4993149;28;20521;-68
2023/07/08 03:12:23;;;;;;;17.30;10.23;;;;;;;17.80;69.80;101433.88;4990514;28;20470;-69
2023/07/08 03:14:49;;;;;;;18.58;10.90;;;;;;;17.77;69.63;101442.94;4991581;28;20500;-69
2023/07/08 03:17:17;;;;;;;19.88;11.25;;;;;;;17.76;69.61;101444.09;4992955;28;20023;-70
2023/07/08 03:19:43;;;;;;;17.35;10.90;;;;;;;17.69;70.40;101447.47;4995075;28;20065;-69
2023/07/08 03:22:08;;;;;;;17.63;10.60;;;;;;;17.68;70.38;101445.00;5012543;28;20060;-69
2023/07/08 03:24:35;;;;;;;17.88;11.18;;;;;;;17.64;70.44;101442.06;5004010;28;20049;-70
2023/07/08 03:27:04;;;;;;;17.00;10.45;;;;;;;17.63;70.73;101446.00;4992706;28;20045;-69
2023/07/08 03:29:30;;;;;;;17.75;10.38;;;;;;;17.61;70.81;101440.75;4992425;28;20037;-70
2023/07/08 03:31:55;;;;;;;21.27;12.35;;;;;;;17.59;70.64;101445.88;4992703;28;20010;-70
2023/07/08 03:34:21;;;;;;;20.08;12.52;;;;;;;17.61;70.86;101449.16;4992948;28;20030;-69
2023/07/08 03:36:49;;;;;;;19.45;12.48;;;;;;;17.57;71.01;101450.97;4992937;28;20026;-69
2023/07/08 03:39:16;;;;;;;20.60;12.40;;;;;;;17.58;70.84;101455.41;4995951;28;20018;-70
2023/07/08 03:41:41;;;;;;;19.90;11.43;;;;;;;17.61;70.65;101453.94;4995709;28;20356;-70
2023/07/08 03:44:07;;;;;;;18.92;11.15;;;;;;;17.57;70.84;101450.19;4986889;28;20037;-70
2023/07/08 03:46:32;;;;;;;17.77;10.27;;;;;;;17.64;70.75;101452.44;5011413;28;20117;-69
2023/07/08 03:48:57;;;;;;;20.17;10.68;;;;;;;17.61;70.84;101457.56;4991916;28;20042;-70
2023/07/08 03:51:27;;;;;;;18.63;10.15;;;;;;;17.61;70.83;101457.56;4992418;28;20058;-69
2023/07/08 03:53:53;;;;;;;17.95;9.75;;;;;;;17.62;71.11;101449.97;4992688;28;20034;-71
2023/07/08 03:56:19;;;;;;;17.70;10.07;;;;;;;17.65;70.98;101454.09;5012211;28;20026;-71
2023/07/08 03:58:44;;;;;;;17.65;10.05;;;;;;;17.63;70.93;101448.81;5012225;28;20074;-69
2023/07/08 04:01:15;;;;;;;17.48;9.75;;;;;;;17.73;70.62;101454.00;4998088;28;20038;-70
2023/07/08 04:03:41;;;;;;;18.63;10.27;;;;;;;17.86;70.69;101448.47;4973297;28;20023;-70
2023/07/08 04:06:06;;;;;;;18.75;9.98;;;;;;;17.86;70.53;101452.09;5007048;28;20092;-70
2023/07/08 04:08:31;;;;;;;18.70;10.00;;;;;;;17.82;70.50;101461.50;4992557;28;20089;-69
2023/07/08 04:10:56;;;;;;;18.23;10.18;;;;;;;17.82;70.54;101453.13;4992017;28;20038;-70
2023/07/08 04:13:22;;;;;;;20.05;9.88;;;;;;;17.80;70.70;101453.47;4992501;28;20030;-70
2023/07/08 04:15:54;;;;;;;17.67;9.23;;;;;;;17.76;70.75;101460.88;5012898;28;20030;-70
2023/07/08 04:18:19;;;;;;;17.75;9.88;;;;;;;17.80;70.89;101456.25;4975423;28;20087;-70
2023/07/08 04:20:44;;;;;;;18.00;9.70;;;;;;;17.79;70.77;101463.00;4991740;28;20045;-70
2023/07/08 04:23:10;;;;;;;18.45;10.10;;;;;;;17.85;70.83;101463.63;4992283;28;20062;-70
2023/07/08 04:25:35;;;;;;;17.30;9.40;;;;;;;17.86;70.70;101473.66;4992515;28;20027;-70
2023/07/08 04:28:00;;;;;;;17.85;9.27;;;;;;;17.88;70.74;101468.56;4990826;28;20121;-70
2023/07/08 04:30:26;;;;;;;18.90;10.25;;;;;;;17.89;70.60;101464.59;4992272;28;20548;-70
2023/07/08 04:32:51;;;;;;;18.30;9.80;;;;;;;17.89;70.52;101468.22;4992163;28;20030;-69
2023/07/08 04:35:17;;;;;;;18.17;9.88;;;;;;;17.93;70.55;101466.38;5001043;28;20045;-70
2023/07/08 04:37:42;;;;;;;19.40;9.88;;;;;;;17.93;70.88;101463.59;5011910;28;20038;-69
2023/07/08 04:40:18;;;;;;;20.33;10.00;;;;;;;17.93;70.77;101459.94;5011772;28;20450;-71
2023/07/08 04:42:47;;;;;;;16.30;9.43;;;;;;;17.97;70.89;101462.91;5003662;28;20081;-70
2023/07/08 04:45:12;;;;;;;16.80;9.57;;;;;;;17.95;71.16;101463.22;4989924;28;20022;-70
2023/07/08 04:47:38;;;;;;;18.63;10.00;;;;;;;17.97;71.07;101460.94;4991222;28;20402;-70
2023/07/08 04:50:03;;;;;;;18.60;10.30;;;;;;;18.00;71.30;101453.84;4992318;28;20026;-70
2023/07/08 04:52:29;;;;;;;18.25;9.57;;;;;;;18.06;71.34;101458.06;4995165;28;20130;-70
2023/07/08 04:54:54;;;;;;;18.55;10.05;;;;;;;18.06;71.08;101449.66;5000425;28;20057;-70
2023/07/08 04:57:20;;;;;;;19.48;9.98;;;;;;;18.13;71.19;101457.50;5015066;28;20113;-70
2023/07/08 04:59:46;;;;;;;17.63;9.68;;;;;;;18.20;70.99;101457.75;5011667;28;20032;-71
2023/07/08 05:02:11;;;;;;;17.88;9.95;;;;;;;18.30;71.02;101462.13;4992551;28;22356;-70
2023/07/08 05:04:36;;;;;;;19.90;10.63;;;;;;;18.38;70.72;101467.63;4993595;28;20715;-69
2023/07/08 05:07:02;;;;;;;18.00;10.10;;;;;;;18.44;70.11;101468.25;5001547;28;20046;-68
2023/07/08 05:09:27;;;;;;;18.33;10.07;;;;;;;18.47;70.15;101456.34;4994502;28;20054;-69
2023/07/08 05:11:53;;;;;;;18.65;10.13;;;;;;;18.50;69.89;101446.44;4995318;28;20034;-70
2023/07/08 05:14:18;;;;;;;18.83;10.40;;;;;;;18.55;70.39;101452.63;4995451;28;20026;-69
2023/07/08 05:16:44;;;;;;;17.48;10.18;;;;;;;18.62;69.72;101454.03;4995397;28;20105;-68
2023/07/08 05:19:10;;;;;;;20.02;10.45;;;;;;;18.70;70.16;101459.56;4995390;28;20129;-69
2023/07/08 05:21:35;;;;;;;19.42;10.15;;;;;;;18.78;69.99;101468.22;5013140;28;20052;-68
2023/07/08 05:24:02;;;;;;;18.42;10.55;;;;;;;18.83;69.91;101457.59;4987881;28;20357;-67
2023/07/08 05:26:27;;;;;;;18.98;11.05;;;;;;;18.89;69.34;101458.19;5007502;28;20489;-68
2023/07/08 05:28:53;;;;;;;19.40;11.45;;;;;;;18.99;68.96;101465.34;4988432;28;20059;-70
2023/07/08 05:31:18;;;;;;;18.88;11.18;;;;;;;19.07;69.03;101458.84;4989831;28;20065;-69
2023/07/08 05:33:43;;;;;;;23.13;11.57;;;;;;;19.11;69.00;101450.53;4995255;28;20813;-69
2023/07/08 05:36:08;;;;;;;18.13;11.13;;;;;;;19.13;69.20;101449.00;4995138;28;20135;-69
2023/07/08 05:38:34;;;;;;;20.88;11.70;;;;;;;19.17;69.61;101463.97;4994972;28;20026;-69
2023/07/08 05:40:59;;;;;;;19.85;11.32;;;;;;;19.26;69.07;101455.44;4995029;28;20490;-70
2023/07/08 05:43:25;;;;;;;19.88;11.75;;;;;;;19.38;68.95;101446.19;4995060;28;20081;-69
2023/07/08 05:45:51;;;;;;;19.75;12.20;;;;;;;19.43;69.09;101448.78;5004654;28;20025;-69
2023/07/08 05:48:17;;;;;;;20.40;11.68;;;;;;;19.51;68.81;101451.78;5014449;28;20105;-69
2023/07/08 05:50:42;;;;;;;19.70;11.60;;;;;;;19.61;67.91;101448.50;5004945;28;20526;-69
2023/07/08 05:53:11;;;;;;;18.95;11.43;;;;;;;19.65;68.49;101452.22;4994855;28;20022;-69
2023/07/08 05:55:37;;;;;;;20.50;11.95;;;;;;;19.70;68.59;101442.75;4998296;28;20029;-69
2023/07/08 05:58:03;;;;;;;19.35;12.30;;;;;;;19.72;67.89;101449.66;4999812;28;20034;-68
2023/07/08 06:00:28;;;;;;;20.65;11.75;;;;;;;19.75;68.07;101446.13;4979686;28;20058;-68
2023/07/08 06:02:54;;;;;;;20.08;11.85;;;;;;;19.79;68.32;101451.84;4983610;28;20019;-69
2023/07/08 06:05:19;;;;;;;20.15;12.02;;;;;;;19.86;68.49;101446.50;4986136;28;20034;-69
2023/07/08 06:07:44;;;;;;;21.85;13.40;;;;;;;19.90;68.18;101446.59;4985997;28;20489;-68
2023/07/08 06:10:10;;;;;;;20.23;12.60;;;;;;;20.00;68.19;101448.91;4986200;28;20062;-69
2023/07/08 06:12:35;;;;;;;21.05;12.75;;;;;;;20.08;68.31;101453.56;4980685;28;20537;-71
2023/07/08 06:15:01;;;;;;;21.88;12.38;;;;;;;20.21;67.88;101457.13;4984141;28;20030;-70
2023/07/08 06:17:26;;;;;;;19.05;12.35;;;;;;;20.34;67.74;101460.69;4985958;28;20058;-70
2023/07/08 06:19:52;;;;;;;21.67;12.88;;;;;;;20.45;66.70;101472.22;4982863;28;20471;-70
2023/07/08 06:22:17;;;;;;;20.48;13.20;;;;;;;20.57;67.07;101463.72;4987389;28;20527;-69
2023/07/08 06:24:42;;;;;;;21.05;13.20;;;;;;;20.65;66.77;101461.09;4987955;28;20034;-70
2023/07/08 06:27:08;;;;;;;19.88;12.65;;;;;;;20.70;65.83;101464.47;4988261;28;20170;-69
2023/07/08 06:29:34;;;;;;;20.65;12.77;;;;;;;20.81;66.03;101464.81;4983822;28;20035;-70
2023/07/08 06:32:00;;;;;;;20.88;12.65;;;;;;;20.93;64.71;101463.88;4987487;28;20403;-71
2023/07/08 06:34:25;;;;;;;21.52;13.05;;;;;;;21.05;65.14;101471.41;4984420;28;20023;-70
2023/07/08 06:36:51;;;;;;;20.95;12.23;;;;;;;21.12;64.00;101463.16;4985003;28;20217;-71
2023/07/08 06:39:17;;;;;;;19.88;12.52;;;;;;;21.20;63.35;101464.16;4984379;28;20153;-70
2023/07/08 06:41:42;;;;;;;19.85;11.77;;;;;;;21.35;63.44;101460.47;4985226;28;20054;-73
2023/07/08 06:44:08;;;;;;;19.63;12.05;;;;;;;21.41;62.64;101460.22;4982795;28;20065;-73
2023/07/08 06:46:34;;;;;;;19.52;11.00;;;;;;;21.51;62.59;101463.28;4987284;28;20042;-74
2023/07/08 06:48:59;;;;;;;20.33;11.50;;;;;;;21.65;62.01;101462.00;4986945;28;20054;-72
2023/07/08 06:51:25;;;;;;;20.20;11.38;;;;;;;21.77;61.51;101464.69;4984567;28;20509;-70
2023/07/08 06:53:51;;;;;;;20.65;11.40;;;;;;;21.88;61.56;101461.28;4990186;28;20038;-66
2023/07/08 06:56:16;;;;;;;19.42;11.80;;;;;;;21.96;61.11;101458.25;4986536;28;20019;-73
2023/07/08 06:58:41;;;;;;;20.95;12.68;;;;;;;22.06;60.93;101456.03;4986808;28;20027;-74
2023/07/08 07:01:07;;;;;;;18.80;11.00;;;;;;;22.15;60.15;101450.19;4985310;28;20037;-73
2023/07/08 07:03:32;;;;;;;20.08;11.82;;;;;;;22.26;59.19;101454.84;4984495;28;20105;-73
2023/07/08 07:05:58;;;;;;;21.08;11.57;;;;;;;22.40;59.91;101450.69;4991251;28;20046;-75
2023/07/08 07:08:23;;;;;;;19.80;11.50;;;;;;;22.52;59.56;101452.56;4983334;28;20133;-74
2023/07/08 07:10:48;;;;;;;19.25;11.85;;;;;;;22.63;58.93;101449.91;4982916;28;20046;-74
2023/07/08 07:13:14;;;;;;;19.73;11.32;;;;;;;22.70;58.53;101452.84;4981654;28;20084;-74
2023/07/08 07:15:39;;;;;;;19.63;11.00;;;;;;;22.83;58.03;101454.31;4992340;28;20093;-75
2023/07/08 07:18:05;;;;;;;20.65;11.50;;;;;;;22.97;58.41;101456.56;4983865;28;20022;-75
2023/07/08 07:20:31;;;;;;;20.98;11.52;;;;;;;23.13;57.79;101455.59;4984906;28;20497;-74
2023/07/08 07:22:56;;;;;;;18.92;11.18;;;;;;;23.19;56.67;101446.47;4983033;28;20031;-73
2023/07/08 07:25:22;;;;;;;19.88;11.63;;;;;;;23.38;56.35;101458.06;4982682;28;20026;-73
2023/07/08 07:27:48;;;;;;;21.08;11.57;;;;;;;23.51;56.76;101453.78;4984234;28;20030;-73
2023/07/08 07:30:15;;;;;;;20.20;12.32;;;;;;;23.61;56.29;101449.50;4982202;28;20054;-71
2023/07/08 07:32:41;;;;;;;19.88;11.50;;;;;;;23.71;55.50;101450.84;4982730;28;20030;-73
2023/07/08 07:35:07;;;;;;;21.58;11.10;;;;;;;23.80;53.78;101448.53;4981085;28;20028;-73
2023/07/08 07:37:33;;;;;;;19.83;11.30;;;;;;;23.85;54.32;101439.75;4983555;28;20037;-73
2023/07/08 07:39:58;;;;;;;21.42;11.63;;;;;;;23.93;53.60;101440.63;4979723;28;20019;-72
2023/07/08 07:42:27;;;;;;;20.25;11.20;;;;;;;24.07;54.95;101431.56;4984290;28;20038;-72
2023/07/08 07:44:52;;;;;;;19.80;11.57;;;;;;;24.13;54.00;101441.34;4981430;28;20106;-73
2023/07/08 07:47:17;;;;;;;19.17;11.70;;;;;;;24.22;53.73;101446.66;4984447;28;20113;-73
2023/07/08 07:49:43;;;;;;;20.42;11.40;;;;;;;24.34;53.83;101452.06;4986692;28;20438;-73
2023/07/08 07:52:10;;;;;;;21.08;11.27;;;;;;;24.40;52.78;101442.03;5004598;28;20347;-74
2023/07/08 07:54:36;;;;;;;19.23;11.43;;;;;;;24.56;52.99;101446.66;4984446;28;20402;-73
2023/07/08 07:57:01;;;;;;;19.98;10.88;;;;;;;24.69;54.02;101435.88;4986522;28;21962;-73
2023/07/08 07:59:26;;;;;;;19.83;11.48;;;;;;;24.76;52.54;101442.41;4981002;28;20031;-74
2023/07/08 08:01:52;;;;;;;20.80;12.25;;;;;;;24.87;52.71;101445.34;4985154;28;20172;-74
2023/07/08 08:04:17;;;;;;;20.77;12.10;;;;;;;25.00;50.47;101445.84;4982321;28;20035;-71
2023/07/08 08:06:43;;;;;;;21.33;12.75;;;;;;;25.06;50.37;101449.94;4980568;28;20046;-74
2023/07/08 08:09:08;;;;;;;19.75;12.15;;;;;;;25.13;50.59;101449.19;4982988;28;20482;-74
2023/07/08 08:11:34;;;;;;;20.90;12.35;;;;;;;25.13;49.73;101445.56;4987532;28;20130;-74
2023/07/08 08:14:00;;;;;;;21.65;12.07;;;;;;;25.19;50.23;101444.78;4982905;28;20046;-73
2023/07/08 08:16:26;;;;;;;21.52;11.75;;;;;;;25.30;50.64;101452.53;4982555;28;20033;-71
2023/07/08 08:18:51;;;;;;;21.00;12.18;;;;;;;25.35;50.33;101452.97;4992135;28;20043;-75
2023/07/08 08:21:16;;;;;;;21.20;12.93;;;;;;;25.46;50.63;101450.25;4992269;28;20029;-76
2023/07/08 08:23:42;;;;;;;19.27;11.55;;;;;;;25.64;51.44;101453.19;4992437;28;20427;-74
2023/07/08 08:26:08;;;;;;;20.40;12.10;;;;;;;25.75;50.33;101446.78;4995985;28;20478;-74
2023/07/08 08:28:33;;;;;;;21.90;12.40;;;;;;;25.94;50.96;101454.13;4996347;28;20528;-75
2023/07/08 08:30:58;;;;;;;19.80;11.18;;;;;;;26.10;50.42;101451.00;4994141;28;20082;-73
2023/07/08 08:33:24;;;;;;;21.45;12.05;;;;;;;26.19;49.60;101459.13;4985415;28;20474;-74
2023/07/08 08:35:49;;;;;;;21.52;12.30;;;;;;;26.25;49.75;101474.53;4996066;28;20394;-74
2023/07/08 08:38:14;;;;;;;21.05;11.82;;;;;;;26.33;49.00;101462.00;4996042;28;20394;-73
2023/07/08 08:40:42;;;;;;;20.77;11.90;;;;;;;26.39;48.97;101470.94;4995990;28;20073;-74
2023/07/08 08:43:15;;;;;;;22.15;12.50;;;;;;;26.47;48.16;101467.72;5013156;28;20034;-73
2023/07/08 08:45:55;;;;;;;22.08;11.90;;;;;;;26.54;48.09;101466.09;5012512;28;20068;-73
2023/07/08 08:48:21;;;;;;;22.33;12.00;;;;;;;26.74;47.66;101473.03;4976347;28;20482;-74
2023/07/08 08:50:52;;;;;;;21.25;12.57;;;;;;;26.79;46.22;101474.69;4990858;28;20116;-73
2023/07/08 08:53:20;;;;;;;20.13;12.48;;;;;;;26.92;45.58;101472.28;4978811;28;20026;-73
2023/07/08 08:56:03;;;;;;;19.98;12.48;;;;;;;27.00;45.87;101473.88;4985097;28;20085;-73
2023/07/08 08:58:43;;;;;;;20.20;12.23;;;;;;;27.09;45.33;101471.47;4976059;28;20037;-72
2023/07/08 09:01:12;;;;;;;23.90;12.38;;;;;;;27.20;45.53;101477.16;4976410;28;20034;-72
2023/07/08 09:03:52;;;;;;;20.90;12.00;;;;;;;27.38;46.00;101474.28;4995401;28;20037;-72
2023/07/08 09:06:26;;;;;;;22.38;12.40;;;;;;;27.42;45.29;101470.63;4997784;28;20053;-73
2023/07/08 09:08:52;;;;;;;21.70;13.40;;;;;;;27.66;45.02;101480.34;5014890;28;20525;-73
2023/07/08 09:11:27;;;;;;;22.95;12.70;;;;;;;27.77;43.82;101478.28;5012352;28;20121;-73
2023/07/08 09:13:53;;;;;;;21.52;12.38;;;;;;;27.85;42.58;101481.91;4995203;28;20036;-72
2023/07/08 09:16:44;;;;;;;21.60;12.05;;;;;;;27.85;42.86;101479.88;4994002;28;20030;-73
2023/07/08 09:19:14;;;;;;;20.83;12.32;;;;;;;27.96;42.67;101479.84;4994510;28;20042;-72
2023/07/08 09:22:01;;;;;;;21.65;11.95;;;;;;;28.10;43.66;101472.50;4995115;28;20367;-72
2023/07/08 09:24:34;;;;;;;19.83;12.40;;;;;;;28.23;43.10;101479.34;4995055;28;20084;-73
2023/07/08 09:27:01;;;;;;;21.77;12.05;;;;;;;28.26;42.46;101477.69;4995024;28;20038;-71
2023/07/08 09:29:27;;;;;;;21.90;11.93;;;;;;;28.42;43.63;101486.56;4994736;28;20030;-72
2023/07/08 09:31:52;;;;;;;22.42;14.77;;;;;;;28.50;42.21;101478.78;4994757;28;20041;-72
2023/07/08 09:34:22;;;;;;;22.08;12.30;;;;;;;28.67;42.05;101468.50;4994057;28;20102;-72
2023/07/08 09:36:50;;;;;;;24.15;12.65;;;;;;;28.72;41.41;101467.28;4992706;28;20109;-72
2023/07/08 09:39:20;;;;;;;20.58;12.07;;;;;;;28.89;40.25;101466.34;4994478;28;20474;-71
2023/07/08 09:41:48;;;;;;;21.60;12.70;;;;;;;28.82;39.34;101452.16;4994766;28;20031;-72
2023/07/08 09:44:18;;;;;;;21.83;11.85;;;;;;;29.00;39.78;101462.59;4994863;28;20499;-73
2023/07/08 09:46:44;;;;;;;27.17;13.13;;;;;;;29.03;39.52;101462.56;4993183;28;20101;-71
2023/07/08 09:49:17;;;;;;;21.27;12.35;;;;;;;29.17;41.34;101467.31;4994565;28;20031;-71
2023/07/08 09:51:43;;;;;;;21.85;13.02;;;;;;;29.30;40.59;101475.34;5009582;28;20056;-74
2023/07/08 09:54:08;;;;;;;20.92;12.45;;;;;;;29.28;40.85;101470.09;4994665;28;20510;-74
2023/07/08 09:56:34;;;;;;;20.40;12.85;;;;;;;29.35;40.11;101466.38;4983344;28;20046;-74
2023/07/08 09:58:59;;;;;;;22.13;12.90;;;;;;;29.23;38.96;101461.97;4975209;28;20094;-72
2023/07/08 10:01:27;;;;;;;22.25;13.20;;;;;;;29.22;40.03;101466.88;4974047;28;20033;-71
2023/07/08 10:03:59;;;;;;;21.35;13.07;;;;;;;29.15;40.48;101458.38;4994310;28;20034;-72
2023/07/08 10:06:27;;;;;;;22.38;13.75;;;;;;;29.20;41.27;101452.25;4994227;28;20038;-73
2023/07/08 10:09:02;;;;;;;21.50;12.32;;;;;;;29.43;39.41;101445.09;4994228;28;20026;-72
2023/07/08 10:12:08;;;;;;;22.65;12.90;;;;;;;29.62;37.73;101454.28;4994050;28;20027;-76
2023/07/08 10:14:42;;;;;;;20.45;12.02;;;;;;;29.41;36.76;101444.75;4990091;28;20125;-73
2023/07/08 10:17:14;;;;;;;22.73;13.15;;;;;;;29.39;38.56;101439.44;4992986;28;20027;-73
2023/07/08 10:19:40;;;;;;;20.58;12.38;;;;;;;29.61;39.74;101444.91;4992767;28;20038;-74
2023/07/08 10:22:21;;;;;;;21.73;12.55;;;;;;;29.87;40.21;101451.13;4992766;28;20018;-74
2023/07/08 10:24:49;;;;;;;22.75;13.25;;;;;;;29.85;38.95;101451.56;4986680;28;20085;-73
2023/07/08 10:27:31;;;;;;;22.75;12.50;;;;;;;29.84;38.67;101449.94;4985978;28;20037;-76
2023/07/08 10:30:11;;;;;;;22.33;13.18;;;;;;;29.76;36.93;101456.97;5013322;28;20081;-74
2023/07/08 10:32:52;;;;;;;21.30;12.45;;;;;;;30.01;39.05;101453.84;5012610;28;20683;-75
2023/07/08 10:35:22;;;;;;;22.00;12.65;;;;;;;30.31;38.77;101451.38;5012939;28;20030;-73
2023/07/08 10:38:12;;;;;;;20.30;12.23;;;;;;;30.54;37.80;101456.38;5010830;28;20054;-72
2023/07/08 10:40:58;;;;;;;22.10;12.50;;;;;;;30.67;36.59;101456.59;5012055;28;20098;-75
2023/07/08 10:43:23;;;;;;;20.60;12.18;;;;;;;30.61;34.44;101452.63;5011753;28;20088;-74
2023/07/08 10:46:01;;;;;;;20.97;12.53;;;;;;;30.68;34.76;101463.13;5011973;28;20030;-76
2023/07/08 10:48:38;;;;;;;19.98;12.25;;;;;;;30.67;33.35;101447.22;5010855;28;20117;-74
2023/07/08 10:51:15;;;;;;;21.65;12.73;;;;;;;30.95;33.71;101463.06;5012198;28;20038;-74
2023/07/08 10:54:03;;;;;;;21.70;12.60;;;;;;;30.95;31.89;101461.03;5012704;28;20036;-76
2023/07/08 10:56:38;;;;;;;20.55;11.95;;;;;;;31.01;32.04;101461.34;5013064;28;20044;-76
2023/07/08 10:59:31;;;;;;;21.08;12.70;;;;;;;31.11;31.54;101451.00;5012723;28;20061;-76
2023/07/08 11:02:02;;;;;;;21.20;12.25;;;;;;;31.24;29.95;101454.84;5011571;28;20041;-74
2023/07/08 11:04:56;;;;;;;20.13;12.50;;;;;;;31.20;30.36;101453.31;4993182;28;20057;-74
2023/07/08 11:07:32;;;;;;;20.65;11.90;;;;;;;31.33;30.05;101453.47;4991847;28;20035;-74
2023/07/08 11:10:07;;;;;;;21.27;12.32;;;;;;;31.55;30.48;101451.78;4993347;28;20119;-75
2023/07/08 11:12:58;;;;;;;20.50;12.30;;;;;;;31.83;30.79;101445.97;4993049;28;20030;-76
2023/07/08 11:15:31;;;;;;;22.00;12.27;;;;;;;31.98;30.34;101444.41;4993187;28;20101;-74